首页
METAR-TAF:

METAR-TAF

机场 :

喀什机场

喀什, 中华人民共和国

纬度: 39-28N, 经度: 075-59E, 海拔: 1291米

当前天气观测

该预报发布于29分钟前的02:00 UTC
风速4节,风向西南
温度 27°C
湿度 17%
气压 1010 hPa
能见度10公里或以上
1500米以下无云,无积雨云

METAR: ZWSH 190200Z 23002MPS CAVOK 27/00 Q1010 NOSIG

时间: 10:29 (02:29 UTC)

预报

该预报发布于5小时和23分钟前的21:06 UTC
预报有效从19日的 00点(UTC)到 19日的 24点(UTC)
风速8节,风向西北,有时为17节阵风
能见度10公里或以上
少量云层高于4000英尺
成为
从 19日的 04点(UTC)到 19日的 05点(UTC)
风速8节,风向东转东北
成为
从 19日的 14点(UTC)到 19日的 15点(UTC)
风速8节,风向西北

TAF: ZWSH 182106Z 1900/1924 32004G09MPS 9999 FEW040 TX33/1909Z TN25/1900Z BECMG 1904/1905 06004MPS BECMG 1914/1915 31004MPS

超过4000个机场的气象观测和天气预报(METAR&TAF报告)。

可查询的气象台以黄色和红色小点在地图上表示。

将鼠标移到小点上方,可查看气象台名称。

然后点击查看天气观测和预报。

如需切换地图:点击带黑十字的绿色按钮放大地图;点击带横线的绿色按钮缩小地图;或者点击绿色箭头查看邻近地区的地图。


METAR-TAF: